createdAt,value
2023-03-23T00:00:23.901Z,65.01
2023-03-23T00:02:55.128Z,65.24
2023-03-23T00:05:25.482Z,65.69
2023-03-23T00:07:58.832Z,65.53
2023-03-23T00:10:34.135Z,65.50
2023-03-23T00:13:07.200Z,65.25
2023-03-23T00:15:42.511Z,65.20
2023-03-23T00:18:22.265Z,65.17
2023-03-23T00:20:54.524Z,65.39
2023-03-23T00:23:29.955Z,65.46
2023-03-23T00:26:00.810Z,65.39
2023-03-23T00:28:31.529Z,65.29
2023-03-23T00:31:03.780Z,65.73
2023-03-23T00:33:39.099Z,65.35
2023-03-23T00:36:11.024Z,65.16
2023-03-23T00:38:45.270Z,65.57
2023-03-23T00:41:16.585Z,65.35
2023-03-23T00:43:46.889Z,65.33
2023-03-23T00:46:17.205Z,65.73
2023-03-23T00:48:48.904Z,65.49
2023-03-23T00:51:19.145Z,65.53
2023-03-23T00:53:52.582Z,65.74
2023-03-23T00:56:24.970Z,65.50
2023-03-23T00:58:55.686Z,65.25
2023-03-23T01:01:26.194Z,65.59
2023-03-23T01:04:02.204Z,65.50
2023-03-23T01:06:32.619Z,65.43
2023-03-23T01:09:07.207Z,65.65
2023-03-23T01:11:38.064Z,66.03
2023-03-23T01:14:08.644Z,65.62
2023-03-23T01:16:38.956Z,65.59
2023-03-23T01:19:09.625Z,65.52
2023-03-23T01:21:40.322Z,65.59
2023-03-23T01:24:13.717Z,65.66
2023-03-23T01:26:43.996Z,66.01
2023-03-23T01:29:14.997Z,65.97
2023-03-23T01:31:45.416Z,66.45
2023-03-23T01:34:15.726Z,66.58
2023-03-23T01:36:46.046Z,65.93
2023-03-23T01:39:18.977Z,66.12
2023-03-23T01:41:49.385Z,66.08
2023-03-23T01:44:49.686Z,66.32
2023-03-23T01:47:24.600Z,66.47
2023-03-23T01:49:55.340Z,66.26
2023-03-23T01:52:35.187Z,66.21
2023-03-23T01:55:10.137Z,66.52
2023-03-23T01:57:41.351Z,66.25
2023-03-23T02:00:16.531Z,66.45
2023-03-23T02:02:48.394Z,66.27
2023-03-23T02:05:25.382Z,66.43
2023-03-23T02:07:57.439Z,66.20
2023-03-23T02:10:30.432Z,66.42
2023-03-23T02:13:01.338Z,66.31
2023-03-23T02:15:41.007Z,66.47
2023-03-23T02:18:17.483Z,66.77
2023-03-23T02:21:09.312Z,66.60
2023-03-23T02:24:16.099Z,66.76
2023-03-23T02:26:58.438Z,66.69
2023-03-23T02:29:42.369Z,66.46
2023-03-23T02:32:26.289Z,66.75
2023-03-23T02:35:03.778Z,66.64
2023-03-23T02:37:40.436Z,66.64
2023-03-23T02:40:17.343Z,67.07
2023-03-23T02:42:53.513Z,67.06
2023-03-23T02:45:27.359Z,67.13
2023-03-23T02:47:59.127Z,67.09
2023-03-23T02:50:33.735Z,67.13
2023-03-23T02:53:05.444Z,66.89
2023-03-23T02:55:41.796Z,67.39
2023-03-23T02:58:12.370Z,67.38
2023-03-23T03:00:43.390Z,67.32
2023-03-23T03:03:19.411Z,67.10
2023-03-23T03:06:04.085Z,67.56
2023-03-23T03:08:42.073Z,67.54
2023-03-23T03:11:13.839Z,67.78
2023-03-23T03:13:52.200Z,67.56
2023-03-23T03:16:29.039Z,67.51
2023-03-23T03:19:04.489Z,67.69
2023-03-23T03:21:40.424Z,67.98
2023-03-23T03:24:13.353Z,67.88
2023-03-23T03:26:48.796Z,67.51
2023-03-23T03:29:22.035Z,68.06
2023-03-23T03:31:57.087Z,68.02
2023-03-23T03:34:27.486Z,67.59
2023-03-23T03:37:06.039Z,67.77
2023-03-23T03:39:42.544Z,67.65
2023-03-23T03:42:13.203Z,67.88
2023-03-23T03:44:44.273Z,68.07
2023-03-23T03:47:14.838Z,67.73
2023-03-23T03:49:45.790Z,68.04
2023-03-23T03:52:22.055Z,68.14
2023-03-23T03:54:52.565Z,67.86
2023-03-23T03:57:23.177Z,67.84
2023-03-23T03:59:54.000Z,67.90
2023-03-23T04:02:24.487Z,68.13
2023-03-23T04:04:56.404Z,67.85
2023-03-23T04:07:30.657Z,67.97
2023-03-23T04:10:01.345Z,67.65
2023-03-23T04:12:31.857Z,67.85
2023-03-23T04:15:06.225Z,67.97
2023-03-23T04:17:37.035Z,68.29
2023-03-23T04:20:13.915Z,68.41
2023-03-23T04:22:50.254Z,68.47
2023-03-23T04:25:24.142Z,68.41
2023-03-23T04:28:01.075Z,68.09
2023-03-23T04:30:33.265Z,67.98
2023-03-23T04:33:03.571Z,67.95
2023-03-23T04:35:36.796Z,68.16
2023-03-23T04:38:10.402Z,68.59
2023-03-23T04:40:41.675Z,68.41
2023-03-23T04:43:13.802Z,68.61
2023-03-23T04:45:47.168Z,68.36
2023-03-23T04:48:17.496Z,68.45
2023-03-23T04:50:49.579Z,68.35
2023-03-23T04:53:23.334Z,68.15
2023-03-23T04:55:53.681Z,68.03
2023-03-23T04:58:25.825Z,67.78
2023-03-23T05:00:56.027Z,67.99
2023-03-23T05:03:26.261Z,67.39
2023-03-23T05:05:56.881Z,67.66
2023-03-23T05:08:29.987Z,67.13
2023-03-23T05:11:03.117Z,66.83
2023-03-23T05:13:33.499Z,66.52
2023-03-23T05:16:08.609Z,66.15
2023-03-23T05:18:38.884Z,66.23
2023-03-23T05:21:09.536Z,65.83
2023-03-23T05:23:43.738Z,65.58
2023-03-23T05:26:14.977Z,65.65
2023-03-23T05:28:46.917Z,64.98
2023-03-23T05:31:22.188Z,64.27
2023-03-23T05:33:52.475Z,64.46
2023-03-23T05:36:25.665Z,63.88
2023-03-23T05:39:01.283Z,64.18
2023-03-23T05:41:31.591Z,63.40
2023-03-23T05:44:01.870Z,63.05
2023-03-23T05:46:32.244Z,62.67
2023-03-23T05:49:03.418Z,62.13
2023-03-23T05:51:33.763Z,61.94
2023-03-23T05:54:07.929Z,60.73
2023-03-23T05:56:38.193Z,61.36
2023-03-23T05:59:11.461Z,60.66
2023-03-23T06:01:42.434Z,60.36
2023-03-23T06:04:20.609Z,59.36
2023-03-23T06:06:50.923Z,58.97
2023-03-23T06:09:24.675Z,57.89
2023-03-23T06:11:54.945Z,57.06
2023-03-23T06:14:25.261Z,56.23
2023-03-23T06:16:56.439Z,55.81
2023-03-23T06:19:28.091Z,55.86
2023-03-23T06:21:58.506Z,55.27
2023-03-23T06:24:31.309Z,54.26
2023-03-23T06:27:02.279Z,52.84
2023-03-23T06:29:33.907Z,51.14
2023-03-23T06:32:06.376Z,49.51
2023-03-23T06:34:37.670Z,48.45
2023-03-23T06:37:07.977Z,46.82
2023-03-23T06:39:41.212Z,45.52
2023-03-23T06:42:14.504Z,43.41
2023-03-23T06:44:44.835Z,42.92
2023-03-23T06:47:15.166Z,41.72
2023-03-23T06:49:45.522Z,41.25
2023-03-23T06:52:15.915Z,41.50
2023-03-23T06:54:49.034Z,40.29
2023-03-23T06:57:19.541Z,40.19
2023-03-23T06:59:50.063Z,41.24
2023-03-23T07:02:20.822Z,40.37
2023-03-23T07:04:51.073Z,39.45
2023-03-23T07:07:21.415Z,38.86
2023-03-23T07:09:55.735Z,39.55
2023-03-23T07:12:26.096Z,39.97
2023-03-23T07:14:56.716Z,41.00
2023-03-23T07:17:27.044Z,40.03
2023-03-23T07:19:57.468Z,39.82
2023-03-23T07:22:29.063Z,39.30
2023-03-23T07:25:03.009Z,38.13
2023-03-23T07:27:33.677Z,37.92
2023-03-23T07:30:04.674Z,37.22
2023-03-23T07:32:35.336Z,36.15
2023-03-23T07:35:07.369Z,36.06
2023-03-23T07:37:38.064Z,35.84
2023-03-23T07:40:15.947Z,36.22
2023-03-23T07:42:47.266Z,34.64
2023-03-23T07:45:17.932Z,34.75
2023-03-23T07:47:48.246Z,34.83
2023-03-23T07:50:19.196Z,35.93
2023-03-23T07:52:49.846Z,36.07
2023-03-23T07:55:23.038Z,35.86
2023-03-23T07:57:53.462Z,35.75
2023-03-23T08:00:26.173Z,35.46
2023-03-23T08:03:01.719Z,35.37
2023-03-23T08:05:33.714Z,35.09
2023-03-23T08:08:05.361Z,35.40
2023-03-23T08:10:38.274Z,33.66
2023-03-23T08:13:09.885Z,33.77
2023-03-23T08:15:43.453Z,32.59
2023-03-23T08:18:14.827Z,32.97
2023-03-23T08:20:45.755Z,33.68
2023-03-23T08:23:16.248Z,33.00
2023-03-23T08:25:49.101Z,31.96
2023-03-23T08:28:19.650Z,31.93
2023-03-23T08:30:50.326Z,32.10
2023-03-23T08:33:22.685Z,32.78
2023-03-23T08:35:59.472Z,32.19
2023-03-23T08:38:30.209Z,32.01
2023-03-23T08:41:05.699Z,31.71
2023-03-23T08:43:36.645Z,31.59
2023-03-23T08:46:10.763Z,31.20
2023-03-23T08:48:41.905Z,31.27
2023-03-23T08:51:12.363Z,31.15
2023-03-23T08:53:43.803Z,30.98
2023-03-23T08:56:17.028Z,31.07
2023-03-23T08:58:47.504Z,30.99
2023-03-23T09:01:17.896Z,29.72
2023-03-23T09:03:48.438Z,30.07
2023-03-23T09:06:18.710Z,30.51
2023-03-23T09:08:52.030Z,30.37
2023-03-23T09:23:10.797Z,33.08
2023-03-23T09:25:42.324Z,31.43
2023-03-23T09:28:13.585Z,30.93
2023-03-23T09:30:53.249Z,30.30
2023-03-23T09:33:24.183Z,31.03
2023-03-23T09:35:54.696Z,30.24
2023-03-23T09:38:27.723Z,30.48
2023-03-23T09:41:05.461Z,30.84
2023-03-23T09:43:56.656Z,30.57
2023-03-23T09:46:45.306Z,29.50
2023-03-23T09:49:19.231Z,31.05
2023-03-23T09:51:54.607Z,30.93
2023-03-23T09:54:32.092Z,31.21
2023-03-23T09:57:05.043Z,30.94
2023-03-23T09:59:40.899Z,30.03
2023-03-23T10:02:18.643Z,29.69
2023-03-23T10:04:51.395Z,29.37
2023-03-23T10:07:23.968Z,29.36
2023-03-23T10:09:59.321Z,29.61
2023-03-23T10:12:34.353Z,30.24
2023-03-23T10:15:17.427Z,29.28
2023-03-23T10:18:00.690Z,29.60
2023-03-23T10:20:44.991Z,30.07
2023-03-23T10:23:19.410Z,30.02
2023-03-23T10:25:57.031Z,30.90
2023-03-23T10:28:40.424Z,29.83
2023-03-23T10:31:15.584Z,29.04
2023-03-23T10:33:49.343Z,30.05
2023-03-23T10:36:25.445Z,29.78
2023-03-23T10:39:02.675Z,29.15
2023-03-23T10:41:35.816Z,30.18
2023-03-23T10:44:14.214Z,29.25
2023-03-23T10:46:51.439Z,28.47
2023-03-23T10:49:26.673Z,28.26
2023-03-23T10:52:04.938Z,28.65
2023-03-23T10:54:39.990Z,28.70
2023-03-23T10:57:26.291Z,28.80
2023-03-23T11:00:07.500Z,28.33
2023-03-23T11:02:43.468Z,29.30
2023-03-23T11:05:24.857Z,29.44
2023-03-23T11:07:59.077Z,29.28
2023-03-23T11:10:31.237Z,30.32
2023-03-23T11:13:05.476Z,29.74
2023-03-23T11:15:39.138Z,29.69
2023-03-23T11:18:14.380Z,29.46
2023-03-23T11:20:49.561Z,29.82
2023-03-23T11:23:24.799Z,29.96
2023-03-23T11:26:06.013Z,29.47
2023-03-23T11:28:41.868Z,28.91
2023-03-23T11:31:12.789Z,28.99
2023-03-23T11:34:05.896Z,28.78
2023-03-23T11:36:39.650Z,29.61
2023-03-23T11:39:24.897Z,29.32
2023-03-23T11:42:09.024Z,29.83
2023-03-23T11:44:46.038Z,30.00
2023-03-23T11:47:26.826Z,30.01
2023-03-23T11:50:04.593Z,29.94
2023-03-23T11:52:44.229Z,30.58
2023-03-23T11:55:19.709Z,30.47
2023-03-23T11:57:51.018Z,30.79
2023-03-23T12:00:26.585Z,31.20
2023-03-23T12:03:27.939Z,30.02
2023-03-23T12:06:05.379Z,29.98
2023-03-23T12:08:51.875Z,30.04
2023-03-23T12:11:28.882Z,29.75
2023-03-23T12:14:08.748Z,29.15
2023-03-23T12:16:52.251Z,29.17
2023-03-23T12:19:34.987Z,29.60
2023-03-23T12:22:13.346Z,29.41
2023-03-23T12:24:57.889Z,29.08
2023-03-23T12:27:37.609Z,28.51
2023-03-23T12:30:28.208Z,28.85
2023-03-23T12:33:14.070Z,28.47
2023-03-23T12:35:56.798Z,30.12
2023-03-23T12:38:58.014Z,28.26
2023-03-23T12:41:33.453Z,27.39
2023-03-23T12:44:08.172Z,28.30
2023-03-23T12:47:05.421Z,27.49
2023-03-23T12:49:42.554Z,27.88
2023-03-23T12:52:19.299Z,27.18
2023-03-23T12:54:55.819Z,27.99
2023-03-23T12:57:32.136Z,27.79
2023-03-23T13:00:12.816Z,27.70
2023-03-23T13:02:51.521Z,27.79
2023-03-23T13:05:39.869Z,27.33
2023-03-23T13:08:16.850Z,27.57
2023-03-23T13:10:50.182Z,27.30
2023-03-23T13:13:23.357Z,27.20
2023-03-23T13:16:09.581Z,27.35
2023-03-23T13:18:48.816Z,26.61
2023-03-23T13:21:28.066Z,27.41
2023-03-23T13:24:02.564Z,27.35
2023-03-23T13:26:32.944Z,27.39
2023-03-23T13:29:06.037Z,27.93
2023-03-23T13:31:37.803Z,27.48
2023-03-23T13:34:14.551Z,28.00
2023-03-23T13:36:56.043Z,28.40
2023-03-23T13:39:29.908Z,28.07
2023-03-23T13:42:06.466Z,27.65
2023-03-23T13:44:49.070Z,27.83
2023-03-23T13:47:29.776Z,27.42
2023-03-23T13:50:02.754Z,28.29
2023-03-23T13:52:54.637Z,27.74
2023-03-23T13:55:34.995Z,28.01
2023-03-23T13:58:16.127Z,28.31
2023-03-23T14:00:52.723Z,28.68
2023-03-23T14:03:29.742Z,29.07
2023-03-23T14:06:08.092Z,28.28
2023-03-23T14:08:47.927Z,28.52
2023-03-23T14:11:22.235Z,28.84
2023-03-23T14:14:05.691Z,28.54
2023-03-23T14:16:41.000Z,28.33
2023-03-23T14:19:21.157Z,28.96
2023-03-23T14:21:58.115Z,29.14
2023-03-23T14:24:33.319Z,28.82
2023-03-23T14:27:14.646Z,29.27
2023-03-23T14:29:45.234Z,29.84
2023-03-23T14:32:20.176Z,30.26
2023-03-23T14:34:52.130Z,29.57
2023-03-23T14:37:22.677Z,29.30
2023-03-23T14:39:59.756Z,29.46
2023-03-23T14:42:33.513Z,29.04
2023-03-23T14:45:05.961Z,29.66
2023-03-23T14:47:40.072Z,29.15
2023-03-23T14:50:27.395Z,29.32
2023-03-23T14:52:57.772Z,29.83
2023-03-23T14:55:32.287Z,29.76
2023-03-23T14:58:13.940Z,29.84
2023-03-23T15:00:47.191Z,29.83
2023-03-23T15:03:22.329Z,30.01
2023-03-23T15:05:56.661Z,29.96
2023-03-23T15:08:32.105Z,30.68
2023-03-23T15:11:10.825Z,30.29
2023-03-23T15:13:41.666Z,30.51
2023-03-23T15:16:20.950Z,30.74
2023-03-23T15:18:55.376Z,31.48
2023-03-23T15:21:29.188Z,31.40
2023-03-23T15:24:00.085Z,31.48
2023-03-23T15:26:44.984Z,31.64
2023-03-23T15:29:19.845Z,32.12
2023-03-23T15:31:58.951Z,31.82
2023-03-23T15:34:35.150Z,33.02
2023-03-23T15:37:14.965Z,32.88
2023-03-23T15:39:49.822Z,33.25
2023-03-23T15:42:31.785Z,33.72
2023-03-23T15:45:24.338Z,33.57
2023-03-23T15:47:54.664Z,33.99
2023-03-23T15:50:40.806Z,34.51
2023-03-23T15:53:26.852Z,34.83
2023-03-23T15:55:59.689Z,34.85
2023-03-23T15:58:33.622Z,34.82
2023-03-23T16:01:08.336Z,34.61
2023-03-23T16:03:46.476Z,34.99
2023-03-23T16:06:23.181Z,34.57
2023-03-23T16:08:55.517Z,35.36
2023-03-23T16:11:27.813Z,35.42
2023-03-23T16:14:00.991Z,35.97
2023-03-23T16:16:35.658Z,35.97
2023-03-23T16:19:06.829Z,36.07
2023-03-23T16:21:37.322Z,36.60
2023-03-23T16:24:10.523Z,37.04
2023-03-23T16:26:41.947Z,37.17
2023-03-23T16:29:39.909Z,36.79
2023-03-23T16:32:08.915Z,37.46
2023-03-23T16:34:39.254Z,37.43
2023-03-23T16:37:13.684Z,37.62
2023-03-23T16:39:43.971Z,37.80
2023-03-23T16:42:14.417Z,38.10
2023-03-23T16:44:49.121Z,37.97
2023-03-23T16:47:23.517Z,37.88
2023-03-23T16:49:54.243Z,38.08
2023-03-23T16:52:24.701Z,38.41
2023-03-23T16:54:55.065Z,38.64
2023-03-23T16:57:25.351Z,38.71
2023-03-23T16:59:58.771Z,39.22
2023-03-23T17:02:29.783Z,39.11
2023-03-23T17:05:00.139Z,39.11
2023-03-23T17:07:31.428Z,39.30
2023-03-23T17:10:01.763Z,39.59
2023-03-23T17:12:32.358Z,39.38
2023-03-23T17:15:06.475Z,39.96
2023-03-23T17:17:36.954Z,40.56
2023-03-23T17:20:08.397Z,41.38
2023-03-23T17:22:39.305Z,42.19
2023-03-23T17:25:11.612Z,42.52
2023-03-23T17:27:42.980Z,43.46
2023-03-23T17:30:16.104Z,43.97
2023-03-23T17:32:47.627Z,44.43
2023-03-23T17:35:18.453Z,45.12
2023-03-23T17:37:48.768Z,45.40
2023-03-23T17:40:19.193Z,46.29
2023-03-23T17:42:49.478Z,46.55
2023-03-23T17:45:22.651Z,46.58
2023-03-23T17:47:52.988Z,47.21
2023-03-23T17:50:23.287Z,47.61
2023-03-23T17:52:53.597Z,47.82
2023-03-23T17:55:23.924Z,47.92
2023-03-23T17:57:54.217Z,48.35
2023-03-23T18:00:27.546Z,48.94
2023-03-23T18:02:57.869Z,48.92
2023-03-23T18:05:28.214Z,49.30
2023-03-23T18:07:58.558Z,49.49
2023-03-23T18:10:28.892Z,49.60
2023-03-23T18:12:59.327Z,49.98
2023-03-23T18:15:33.780Z,50.33
2023-03-23T18:18:04.614Z,50.23
2023-03-23T18:20:35.608Z,50.50
2023-03-23T18:23:07.194Z,50.51
2023-03-23T18:25:37.474Z,50.06
2023-03-23T18:28:08.556Z,49.64
2023-03-23T18:30:41.428Z,49.29
2023-03-23T18:33:11.690Z,49.34
2023-03-23T18:35:42.351Z,49.58
2023-03-23T18:38:13.492Z,49.31
2023-03-23T18:40:46.761Z,48.93
2023-03-23T18:43:19.203Z,49.13
2023-03-23T18:46:00.696Z,49.54
2023-03-23T18:48:31.257Z,49.76
2023-03-23T18:51:03.161Z,50.10
2023-03-23T18:53:39.119Z,50.33
2023-03-23T18:56:14.152Z,50.46
2023-03-23T18:58:44.985Z,51.30
2023-03-23T19:01:20.052Z,51.23
2023-03-23T19:03:55.967Z,51.73
2023-03-23T19:06:28.319Z,52.05
2023-03-23T19:09:02.258Z,52.24
2023-03-23T19:11:32.356Z,52.52
2023-03-23T19:14:03.574Z,52.35
2023-03-23T19:16:38.496Z,52.57
2023-03-23T19:19:10.552Z,52.75
2023-03-23T19:21:46.910Z,53.50
2023-03-23T19:24:18.938Z,53.21
2023-03-23T19:26:49.918Z,53.61
2023-03-23T19:29:26.637Z,53.54
2023-03-23T19:32:01.163Z,53.45
2023-03-23T19:34:32.083Z,53.79
2023-03-23T19:37:05.841Z,53.82
2023-03-23T19:39:42.936Z,53.81
2023-03-23T19:42:17.110Z,54.18
2023-03-23T19:44:47.618Z,54.64
2023-03-23T19:47:20.639Z,55.12
2023-03-23T19:49:53.338Z,54.77
2023-03-23T19:52:23.773Z,54.90
2023-03-23T19:54:54.461Z,54.71
2023-03-23T19:57:25.874Z,54.60
2023-03-23T19:59:58.357Z,54.62
2023-03-23T20:02:34.827Z,54.46
2023-03-23T20:05:06.249Z,54.46
2023-03-23T20:07:40.720Z,54.20
2023-03-23T20:10:12.355Z,54.64
2023-03-23T20:12:42.927Z,54.48
2023-03-23T20:15:13.384Z,54.64
2023-03-23T20:17:46.405Z,54.53
2023-03-23T20:20:17.948Z,54.67
2023-03-23T20:22:50.031Z,55.02
2023-03-23T20:25:25.066Z,54.93
2023-03-23T20:27:55.287Z,54.90
2023-03-23T20:30:25.704Z,55.04
2023-03-23T20:33:00.731Z,55.05
2023-03-23T20:35:32.365Z,55.14
2023-03-23T20:38:02.729Z,55.14
2023-03-23T20:40:33.050Z,55.58
2023-03-23T20:43:04.020Z,55.68
2023-03-23T20:45:34.341Z,55.64
2023-03-23T20:48:07.835Z,55.74
2023-03-23T20:50:38.512Z,55.75
2023-03-23T20:53:08.920Z,55.77
2023-03-23T20:55:39.239Z,56.00
2023-03-23T20:58:09.590Z,55.74
2023-03-23T21:00:42.271Z,56.10
2023-03-23T21:03:16.258Z,55.92
2023-03-23T21:05:46.812Z,56.38
2023-03-23T21:08:18.516Z,55.73
2023-03-23T21:10:50.022Z,55.78
2023-03-23T21:13:20.921Z,55.89
2023-03-23T21:15:53.072Z,56.09
2023-03-23T21:18:26.577Z,55.85
2023-03-23T21:20:57.401Z,56.05
2023-03-23T21:23:29.845Z,55.81
2023-03-23T21:26:04.371Z,56.17
2023-03-23T21:28:35.124Z,56.01
2023-03-23T21:31:07.516Z,56.00
2023-03-23T21:33:40.544Z,56.68
2023-03-23T21:36:11.044Z,56.31
2023-03-23T21:38:41.964Z,56.14
2023-03-23T21:41:14.272Z,56.35
2023-03-23T21:43:46.034Z,56.71
2023-03-23T21:46:18.455Z,56.07
2023-03-23T21:48:53.190Z,56.51
2023-03-23T21:51:25.399Z,56.76
2023-03-23T21:53:57.152Z,56.41
2023-03-23T21:56:29.265Z,56.46
2023-03-23T21:59:01.460Z,57.01
2023-03-23T22:01:32.241Z,56.97
2023-03-23T22:04:05.681Z,56.88
2023-03-23T22:06:36.417Z,57.37
2023-03-23T22:09:09.912Z,57.26
2023-03-23T22:11:42.039Z,57.27
2023-03-23T22:14:12.705Z,57.19
2023-03-23T22:16:43.121Z,57.95
2023-03-23T22:19:16.392Z,57.74
2023-03-23T22:21:47.853Z,57.52
2023-03-23T22:24:19.018Z,57.95
2023-03-23T22:26:49.323Z,57.40
2023-03-23T22:29:19.977Z,57.70
2023-03-23T22:31:50.612Z,57.70
2023-03-23T22:34:23.862Z,57.65
2023-03-23T22:36:54.153Z,58.17
2023-03-23T22:39:27.390Z,58.28
2023-03-23T22:41:57.667Z,58.65
2023-03-23T22:44:28.143Z,58.84
2023-03-23T22:46:58.416Z,58.92
2023-03-23T22:49:32.556Z,58.66
2023-03-23T22:52:03.049Z,59.15
2023-03-23T22:54:34.566Z,58.65
2023-03-23T22:57:04.973Z,58.97
2023-03-23T22:59:35.445Z,58.99
2023-03-23T23:02:05.855Z,59.05
2023-03-23T23:04:38.866Z,59.60
2023-03-23T23:07:14.300Z,59.61
2023-03-23T23:09:45.030Z,60.13
2023-03-23T23:12:17.288Z,59.86
2023-03-23T23:14:48.030Z,59.89
2023-03-23T23:17:18.408Z,59.99
2023-03-23T23:19:51.734Z,59.76
2023-03-23T23:22:22.297Z,60.67
2023-03-23T23:24:55.518Z,60.00
2023-03-23T23:27:25.854Z,60.49
2023-03-23T23:29:56.461Z,60.02
2023-03-23T23:32:29.270Z,60.65
2023-03-23T23:35:02.361Z,60.68
2023-03-23T23:37:33.025Z,60.57
2023-03-23T23:40:06.745Z,60.53
2023-03-23T23:42:37.106Z,60.78
2023-03-23T23:45:10.529Z,60.90
2023-03-23T23:47:41.349Z,60.60
2023-03-23T23:50:18.889Z,60.68
2023-03-23T23:52:50.399Z,60.50
2023-03-23T23:55:22.178Z,60.59
2023-03-23T23:57:52.727Z,60.50
